Sherbrooke Airport Sherbrooke CA
ICAO: CYSC
IATA: YSC
Category: Medium
Scheduled Services: No

Elevation: 792 ft
TransAlt. 7900 ft.

Airport Communications:
MF:123.5
AWOS:126.25
MONTREAL CNTR:132.55
ATF/UNICOM:123.5

CYSC Zoom In..

Runways:

(A) RW 13 length 5901 ft width 150 ft
---- / hdg 136

(B) RW 31 length 5901 ft width 150 ft
---- / hdg 316

Location; CYSC
Day. 23 / Time. 22.00 Zulu
* Altimeter: 29.91
* Temperature: 18° c. 64.4°f.
* Wind from: 330° Speed 05 kn.
Dewpoint: 03° c.
Visibility: 9 Statute Miles.
Clouds: Few 7000 ft.
Clouds: Scattered 25000 ft.

CYSC 232200Z AUTO 33005KT 300V360 9SM FEW070 SCT250 18/03 A2991 RMK SLP133 DENSITY ALT 1300FT


Wind From 330°
Speed 05 kn.

 
 
jpsmedia.com for Web Design SOUNDCLOUD worldairports.se 2018   terms of use